Ashley, Michigan
Current Conditions -  °F | °C
As of 2:31 AM on Thursday 23 Oct 2014 (Local Time) from KAMN Reporting Station
Moderate Fog Moderate Fog  
Wind Chill: 32°   Ceiling: Unl
Heat Index: 32°   Visibility: 0.5mi
Dew Point: 31°   Wind: 0mph
Humidity: 98%   Direction: NA
Pressure: 30.29"   Gusts: NA
Location:  43.19°N, 84.47°W
Report Text: KAMN 230631Z AUTO 00000KT 1/2SM FG SCT003 00/00 A3029 RMK AO2 T00001003
Loading
Personal Weather Stations






























Interactive Weather Map
Tropical Storm Tracking
New forecast layout! Learn more

10-Day Weather Forecast

Advertisements
Track Severe Weather on mobile